Time;durP1;ratioP1;P1;durP2;ratioP2;P2;SDS_P1;SDS_P2;PMS_P1;PMS_P2;Temp;Humidity;BMP_temperature;BMP_pressure;BME280_temperature;BME280_humidity;BME280_pressure;Samples;Min_cycle;Max_cycle;Signal;HPM_P1;HPM_P2
2022/03/18 00:01:49;;;;;;;20.77;5.32;;;;;;;;;;4978438;28;20033;-82
2022/03/18 00:04:16;;;;;;;15.77;4.65;;;;;;;;;;4995443;28;20489;-83
2022/03/18 00:06:42;;;;;;;18.00;5.05;;;;;;;;;;4982779;28;20127;-83
2022/03/18 00:09:08;;;;;;;14.90;4.50;;;;;;;;;;4983187;28;20164;-83
2022/03/18 00:11:34;;;;;;;17.67;5.38;;;;;;;;;;4985048;28;20022;-83
2022/03/18 00:14:03;;;;;;;22.38;5.32;;;;;;;;;;4998218;28;20482;-83
2022/03/18 00:16:29;;;;;;;15.30;5.18;;;;;;;;;;4987713;28;20028;-83
2022/03/18 00:18:58;;;;;;;16.30;5.22;;;;;;;;;;4980654;28;20030;-83
2022/03/18 00:21:25;;;;;;;27.17;5.45;;;;;;;;;;5002586;28;20548;-83
2022/03/18 00:23:51;;;;;;;31.40;6.50;;;;;;;;;;4985666;28;20488;-83
2022/03/18 00:26:17;;;;;;;24.73;6.28;;;;;;;;;;4989003;28;20026;-83
2022/03/18 00:28:43;;;;;;;19.15;5.35;;;;;;;;;;4989153;28;20390;-83
2022/03/18 00:31:09;;;;;;;18.48;5.68;;;;;;;;;;4986720;28;20133;-83
2022/03/18 00:33:35;;;;;;;30.75;5.97;;;;;;;;;;5006306;28;20030;-83
2022/03/18 00:36:01;;;;;;;21.23;6.35;;;;;;;;;;4987850;28;20456;-84
2022/03/18 00:38:27;;;;;;;20.98;6.68;;;;;;;;;;4986135;28;20022;-83
2022/03/18 00:40:56;;;;;;;22.80;6.90;;;;;;;;;;4985110;28;20034;-83
2022/03/18 00:43:23;;;;;;;19.00;7.20;;;;;;;;;;5001675;28;20065;-83
2022/03/18 00:45:49;;;;;;;26.13;7.15;;;;;;;;;;5005267;28;20541;-84
2022/03/18 00:53:46;;;;;;;27.63;7.07;;;;;;;;;;5001334;28;20041;-83
2022/03/18 00:56:12;;;;;;;21.15;7.10;;;;;;;;;;4982877;28;20121;-83
2022/03/18 00:58:39;;;;;;;26.83;6.30;;;;;;;;;;4984708;28;20030;-83
2022/03/18 01:01:05;;;;;;;17.80;6.53;;;;;;;;;;5003636;28;20060;-83
2022/03/18 01:03:31;;;;;;;21.85;6.43;;;;;;;;;;4986963;28;20030;-83
2022/03/18 01:05:57;;;;;;;19.33;5.25;;;;;;;;;;5002314;28;20149;-82
2022/03/18 01:08:26;;;;;;;28.27;6.40;;;;;;;;;;4986165;28;20092;-83
2022/03/18 01:10:53;;;;;;;38.88;4.80;;;;;;;;;;4987987;28;20034;-84
2022/03/18 01:13:20;;;;;;;24.35;6.65;;;;;;;;;;4985220;28;20041;-83
2022/03/18 01:15:46;;;;;;;19.67;5.65;;;;;;;;;;4999817;28;20040;-83
2022/03/18 01:18:12;;;;;;;22.67;5.38;;;;;;;;;;5003590;28;20092;-83
2022/03/18 01:20:38;;;;;;;22.58;6.40;;;;;;;;;;4987574;28;20058;-83
2022/03/18 01:23:07;;;;;;;24.70;5.60;;;;;;;;;;4985883;28;20030;-83
2022/03/18 01:25:34;;;;;;;28.23;5.97;;;;;;;;;;4986570;28;20081;-83
2022/03/18 01:28:04;;;;;;;13.40;5.13;;;;;;;;;;5004508;28;20036;-83
2022/03/18 01:30:31;;;;;;;19.15;5.68;;;;;;;;;;4988380;28;20409;-83
2022/03/18 01:33:00;;;;;;;14.60;5.25;;;;;;;;;;4986939;28;20443;-83
2022/03/18 01:35:26;;;;;;;23.75;5.45;;;;;;;;;;4987702;28;20026;-83
2022/03/18 01:37:52;;;;;;;20.80;5.90;;;;;;;;;;4998137;28;20498;-83
2022/03/18 01:40:18;;;;;;;25.30;5.75;;;;;;;;;;4998850;28;20069;-83
2022/03/18 01:42:45;;;;;;;20.00;6.35;;;;;;;;;;4999606;28;20113;-83
2022/03/18 01:45:11;;;;;;;18.90;5.70;;;;;;;;;;4985238;28;20038;-83
2022/03/18 01:47:42;;;;;;;16.42;5.03;;;;;;;;;;4987170;28;20034;-83
2022/03/18 01:50:10;;;;;;;17.17;5.75;;;;;;;;;;4981062;28;20120;-83
2022/03/18 01:52:39;;;;;;;22.50;5.53;;;;;;;;;;4987225;28;20506;-83
2022/03/18 01:55:06;;;;;;;12.57;4.13;;;;;;;;;;4985333;28;20030;-83
2022/03/18 01:57:32;;;;;;;20.05;5.20;;;;;;;;;;5001048;28;20030;-83
2022/03/18 01:59:58;;;;;;;15.13;5.43;;;;;;;;;;4985088;28;20074;-83
2022/03/18 02:02:25;;;;;;;13.88;4.95;;;;;;;;;;5003235;28;20525;-83
2022/03/18 02:04:52;;;;;;;13.63;5.10;;;;;;;;;;5001723;28;20133;-83
2022/03/18 02:07:18;;;;;;;14.65;4.97;;;;;;;;;;5002892;28;20433;-83
2022/03/18 02:09:45;;;;;;;21.75;5.63;;;;;;;;;;4999530;28;20109;-83
2022/03/18 02:12:11;;;;;;;26.35;5.75;;;;;;;;;;5004114;28;20033;-83
2022/03/18 02:14:40;;;;;;;11.32;5.97;;;;;;;;;;4987485;28;20029;-83
2022/03/18 02:17:07;;;;;;;15.35;5.50;;;;;;;;;;5003037;28;20026;-83
2022/03/18 02:19:34;;;;;;;16.50;4.97;;;;;;;;;;5001435;28;20643;-83
2022/03/18 02:22:01;;;;;;;18.08;4.72;;;;;;;;;;4985223;28;20116;-82
2022/03/18 02:24:27;;;;;;;13.88;5.65;;;;;;;;;;4984644;28;20124;-83
2022/03/18 02:26:54;;;;;;;13.55;5.35;;;;;;;;;;4996917;28;20032;-83
2022/03/18 02:29:22;;;;;;;23.77;6.22;;;;;;;;;;4986972;28;20520;-83
2022/03/18 02:31:48;;;;;;;19.48;4.88;;;;;;;;;;4997186;28;20033;-83
2022/03/18 02:34:14;;;;;;;14.63;5.47;;;;;;;;;;4997662;28;20037;-83
2022/03/18 02:36:41;;;;;;;29.50;5.40;;;;;;;;;;5000634;28;20875;-83
2022/03/18 02:39:07;;;;;;;13.90;5.28;;;;;;;;;;4983083;28;20037;-83
2022/03/18 02:41:33;;;;;;;10.73;5.03;;;;;;;;;;4997098;28;20442;-83
2022/03/18 02:44:00;;;;;;;17.08;5.68;;;;;;;;;;4976210;28;20057;-83
2022/03/18 02:46:26;;;;;;;16.38;5.95;;;;;;;;;;4974708;28;20088;-82
2022/03/18 02:48:53;;;;;;;14.85;5.75;;;;;;;;;;4984381;28;20033;-83
2022/03/18 02:51:19;;;;;;;18.08;6.55;;;;;;;;;;4988080;28;20597;-83
2022/03/18 02:53:45;;;;;;;15.70;5.63;;;;;;;;;;4980648;28;20088;-83
2022/03/18 02:56:12;;;;;;;18.70;6.97;;;;;;;;;;4981369;28;20034;-83
2022/03/18 02:58:38;;;;;;;22.27;6.03;;;;;;;;;;5000831;28;20691;-83
2022/03/18 03:01:05;;;;;;;15.77;6.38;;;;;;;;;;4983109;28;20525;-83
2022/03/18 03:03:31;;;;;;;19.63;6.47;;;;;;;;;;4979158;28;20040;-83
2022/03/18 03:08:43;;;;;;;17.63;6.63;;;;;;;;;;4999086;28;20076;-83
2022/03/18 03:11:09;;;;;;;14.13;6.70;;;;;;;;;;4999151;28;20044;-83
2022/03/18 03:13:35;;;;;;;13.45;5.65;;;;;;;;;;4986614;28;20430;-83
2022/03/18 03:16:05;;;;;;;17.80;6.28;;;;;;;;;;4999577;28;20022;-83
2022/03/18 03:18:31;;;;;;;21.05;5.88;;;;;;;;;;5000314;28;20461;-83
2022/03/18 03:20:57;;;;;;;17.08;5.80;;;;;;;;;;5001128;28;20255;-83
2022/03/18 03:23:25;;;;;;;14.27;5.50;;;;;;;;;;4986209;28;20033;-83
2022/03/18 03:25:51;;;;;;;21.55;5.88;;;;;;;;;;4995770;28;20145;-83
2022/03/18 03:28:17;;;;;;;10.57;5.55;;;;;;;;;;4981155;28;20429;-83
2022/03/18 03:30:44;;;;;;;13.18;5.10;;;;;;;;;;4996156;28;20022;-83
2022/03/18 03:33:10;;;;;;;12.75;4.95;;;;;;;;;;4979111;28;20076;-83
2022/03/18 03:35:36;;;;;;;20.83;5.70;;;;;;;;;;4999371;28;20026;-83
2022/03/18 03:38:03;;;;;;;17.20;5.50;;;;;;;;;;4999047;28;20028;-83
2022/03/18 03:40:29;;;;;;;14.55;5.95;;;;;;;;;;4985120;28;20291;-83
2022/03/18 03:42:55;;;;;;;17.88;5.68;;;;;;;;;;4996828;28;20446;-83
2022/03/18 03:45:22;;;;;;;18.65;6.28;;;;;;;;;;4983842;28;20061;-82
2022/03/18 03:47:48;;;;;;;23.73;6.45;;;;;;;;;;4981739;28;20025;-86
2022/03/18 03:50:15;;;;;;;15.55;6.28;;;;;;;;;;4985014;28;20049;-83
2022/03/18 03:52:41;;;;;;;21.80;6.43;;;;;;;;;;5000284;28;20066;-83
2022/03/18 03:55:08;;;;;;;16.65;5.57;;;;;;;;;;5002359;28;20714;-83
2022/03/18 03:57:34;;;;;;;20.20;6.82;;;;;;;;;;4999677;28;20430;-83
2022/03/18 04:00:01;;;;;;;18.80;6.05;;;;;;;;;;4992640;28;20413;-83
2022/03/18 04:02:27;;;;;;;13.60;5.93;;;;;;;;;;5006413;28;20575;-83
2022/03/18 04:04:53;;;;;;;22.95;6.68;;;;;;;;;;5001175;28;20085;-83
2022/03/18 04:07:20;;;;;;;17.67;6.20;;;;;;;;;;5003910;28;20050;-83
2022/03/18 04:09:49;;;;;;;29.17;7.05;;;;;;;;;;4984656;28;20054;-83
2022/03/18 04:12:15;;;;;;;9.52;5.18;;;;;;;;;;5000409;28;20133;-83
2022/03/18 04:14:41;;;;;;;22.92;5.95;;;;;;;;;;5002328;28;20033;-83
2022/03/18 04:17:10;;;;;;;22.67;5.57;;;;;;;;;;5004993;28;20061;-83
2022/03/18 04:19:36;;;;;;;12.70;5.63;;;;;;;;;;4982183;28;20555;-83
2022/03/18 04:22:03;;;;;;;29.02;7.05;;;;;;;;;;4988704;28;20052;-83
2022/03/18 04:24:29;;;;;;;16.23;5.25;;;;;;;;;;5007539;28;20040;-83
2022/03/18 04:26:55;;;;;;;14.32;5.72;;;;;;;;;;4984764;28;20037;-83
2022/03/18 04:29:21;;;;;;;19.50;6.68;;;;;;;;;;4988062;28;20401;-83
2022/03/18 04:31:47;;;;;;;19.80;6.03;;;;;;;;;;5000074;28;20032;-83
2022/03/18 04:34:13;;;;;;;24.92;6.80;;;;;;;;;;4989098;28;20021;-83
2022/03/18 04:36:39;;;;;;;12.70;6.35;;;;;;;;;;5003727;28;20037;-83
2022/03/18 04:39:06;;;;;;;14.23;6.03;;;;;;;;;;4999161;28;20109;-83
2022/03/18 04:41:32;;;;;;;19.58;6.00;;;;;;;;;;4985079;28;20507;-83
2022/03/18 04:43:58;;;;;;;14.52;5.88;;;;;;;;;;5000096;28;20125;-83
2022/03/18 04:46:24;;;;;;;15.68;6.88;;;;;;;;;;4983792;28;20022;-83
2022/03/18 04:48:51;;;;;;;13.85;6.32;;;;;;;;;;4986833;28;20048;-83
2022/03/18 04:51:17;;;;;;;20.50;8.20;;;;;;;;;;4986482;28;20032;-83
2022/03/18 04:53:43;;;;;;;17.10;6.78;;;;;;;;;;4987511;28;20541;-83
2022/03/18 04:57:15;;;;;;;17.90;7.28;;;;;;;;;;4988417;28;20038;-82
2022/03/18 04:58:55;;;;;;;20.42;7.63;;;;;;;;;;5003324;28;20026;-83
2022/03/18 05:01:21;;;;;;;17.10;6.50;;;;;;;;;;4997654;28;20188;-82
2022/03/18 05:03:47;;;;;;;16.48;8.32;;;;;;;;;;5002061;28;20281;-82
2022/03/18 05:06:13;;;;;;;24.90;8.25;;;;;;;;;;4990009;28;20494;-83
2022/03/18 05:08:39;;;;;;;13.88;7.15;;;;;;;;;;5000554;28;20418;-82
2022/03/18 05:11:05;;;;;;;17.50;7.88;;;;;;;;;;4998161;28;20030;-83
2022/03/18 05:13:31;;;;;;;20.92;8.20;;;;;;;;;;4982424;28;20145;-83
2022/03/18 05:15:57;;;;;;;20.77;7.47;;;;;;;;;;4999101;28;20130;-83
2022/03/18 05:18:23;;;;;;;18.20;7.82;;;;;;;;;;5008165;28;20096;-83
2022/03/18 05:20:50;;;;;;;18.48;8.48;;;;;;;;;;4997486;28;20030;-83
2022/03/18 05:23:17;;;;;;;27.98;8.63;;;;;;;;;;5004853;28;20048;-83
2022/03/18 05:25:43;;;;;;;20.15;8.63;;;;;;;;;;5001050;28;20022;-83
2022/03/18 05:28:17;;;;;;;22.88;8.88;;;;;;;;;;4998953;28;20030;-83
2022/03/18 05:30:44;;;;;;;20.50;9.52;;;;;;;;;;4982106;28;20034;-83
2022/03/18 05:33:10;;;;;;;19.08;9.57;;;;;;;;;;4987354;28;20120;-83
2022/03/18 05:35:36;;;;;;;22.17;9.40;;;;;;;;;;4986068;28;20126;-84
2022/03/18 05:38:02;;;;;;;23.75;9.88;;;;;;;;;;4984701;28;20036;-83
2022/03/18 05:40:35;;;;;;;19.55;9.90;;;;;;;;;;4985158;28;20490;-83
2022/03/18 05:43:02;;;;;;;24.17;9.57;;;;;;;;;;4987748;28;20034;-83
2022/03/18 05:45:27;;;;;;;26.65;10.55;;;;;;;;;;4985998;28;20032;-83
2022/03/18 05:47:54;;;;;;;24.90;10.25;;;;;;;;;;4985113;28;20575;-83
2022/03/18 05:50:20;;;;;;;22.00;10.25;;;;;;;;;;4987589;28;20038;-83
2022/03/18 05:52:46;;;;;;;17.73;9.50;;;;;;;;;;4999561;28;20050;-83
2022/03/18 05:55:12;;;;;;;20.02;9.68;;;;;;;;;;4985615;28;20234;-83
2022/03/18 05:57:38;;;;;;;20.65;9.18;;;;;;;;;;5002104;28;20298;-84
2022/03/18 06:00:05;;;;;;;27.77;11.25;;;;;;;;;;4986788;28;20026;-84
2022/03/18 06:02:31;;;;;;;25.65;10.93;;;;;;;;;;4983459;28;20125;-84
2022/03/18 06:04:57;;;;;;;18.77;10.82;;;;;;;;;;4982342;28;20577;-84
2022/03/18 06:07:23;;;;;;;22.95;11.82;;;;;;;;;;4986609;28;20030;-83
2022/03/18 06:12:34;;;;;;;29.15;11.15;;;;;;;;;;5000551;28;20540;-83
2022/03/18 06:15:00;;;;;;;22.35;10.63;;;;;;;;;;5000411;28;20328;-84
2022/03/18 06:17:27;;;;;;;17.63;10.73;;;;;;;;;;4997431;28;20030;-84
2022/03/18 06:19:53;;;;;;;26.77;12.07;;;;;;;;;;5003652;28;20034;-84
2022/03/18 06:22:19;;;;;;;27.98;11.02;;;;;;;;;;4984530;28;20033;-83
2022/03/18 06:24:45;;;;;;;22.73;10.75;;;;;;;;;;4999653;28;20040;-83
2022/03/18 06:27:11;;;;;;;28.60;10.75;;;;;;;;;;5000944;28;20104;-84
2022/03/18 06:29:39;;;;;;;22.08;10.35;;;;;;;;;;4982398;28;20540;-84
2022/03/18 06:32:06;;;;;;;24.55;9.80;;;;;;;;;;4985977;28;20081;-83
2022/03/18 06:34:32;;;;;;;17.83;9.73;;;;;;;;;;4985846;28;20037;-83
2022/03/18 06:37:00;;;;;;;20.80;10.40;;;;;;;;;;4982644;28;20470;-83
2022/03/18 06:39:26;;;;;;;22.00;9.93;;;;;;;;;;4987195;28;20081;-83
2022/03/18 06:41:52;;;;;;;22.73;9.25;;;;;;;;;;5004818;28;20034;-84
2022/03/18 06:44:19;;;;;;;18.45;10.45;;;;;;;;;;5001008;28;20072;-84
2022/03/18 06:46:46;;;;;;;28.15;10.45;;;;;;;;;;4995818;28;20048;-83
2022/03/18 06:49:13;;;;;;;30.50;9.57;;;;;;;;;;4991355;28;20038;-83
2022/03/18 06:51:39;;;;;;;21.17;10.05;;;;;;;;;;4988466;28;20036;-83
2022/03/18 06:54:06;;;;;;;21.02;9.25;;;;;;;;;;4986478;28;20050;-84
2022/03/18 06:56:32;;;;;;;20.33;9.68;;;;;;;;;;4988963;28;20442;-83
2022/03/18 06:58:59;;;;;;;21.50;9.32;;;;;;;;;;4985704;28;20037;-84
2022/03/18 07:01:25;;;;;;;18.85;8.27;;;;;;;;;;4989905;28;20529;-83
2022/03/18 07:03:51;;;;;;;24.88;10.27;;;;;;;;;;4985324;28;20474;-83
2022/03/18 07:06:17;;;;;;;18.55;8.63;;;;;;;;;;5002892;28;20094;-83
2022/03/18 07:08:43;;;;;;;17.90;8.63;;;;;;;;;;4985713;28;20063;-83
2022/03/18 07:11:13;;;;;;;19.75;8.65;;;;;;;;;;5003495;28;20278;-83
2022/03/18 07:13:43;;;;;;;20.92;9.25;;;;;;;;;;4988277;28;20493;-83
2022/03/18 07:18:55;;;;;;;20.03;8.73;;;;;;;;;;5000898;28;20093;-83
2022/03/18 07:21:21;;;;;;;17.40;8.07;;;;;;;;;;5000121;28;20037;-83
2022/03/18 07:23:48;;;;;;;24.77;8.57;;;;;;;;;;4981104;28;20053;-84
2022/03/18 07:26:14;;;;;;;25.35;7.97;;;;;;;;;;4996323;28;20379;-83
2022/03/18 07:28:40;;;;;;;17.88;8.57;;;;;;;;;;4985178;28;20045;-83
2022/03/18 07:31:09;;;;;;;20.75;7.68;;;;;;;;;;4996879;28;20371;-83
2022/03/18 07:33:35;;;;;;;18.08;8.27;;;;;;;;;;4996747;28;20037;-83
2022/03/18 07:36:01;;;;;;;21.50;7.78;;;;;;;;;;4997138;28;20530;-83
2022/03/18 07:38:27;;;;;;;32.25;8.60;;;;;;;;;;4980761;28;20088;-83
2022/03/18 07:40:53;;;;;;;24.30;8.30;;;;;;;;;;4987252;28;20088;-84
2022/03/18 07:43:19;;;;;;;18.10;6.55;;;;;;;;;;4985289;28;20034;-83
2022/03/18 07:45:45;;;;;;;24.92;8.05;;;;;;;;;;4983958;28;20029;-84
2022/03/18 07:48:11;;;;;;;22.05;7.43;;;;;;;;;;5002407;28;20032;-84
2022/03/18 07:50:41;;;;;;;22.45;7.70;;;;;;;;;;4996142;28;20033;-84
2022/03/18 07:53:09;;;;;;;19.50;7.90;;;;;;;;;;4996785;28;20060;-84
2022/03/18 07:55:36;;;;;;;36.80;8.20;;;;;;;;;;4977883;28;20570;-84
2022/03/18 07:58:03;;;;;;;27.13;8.32;;;;;;;;;;4985242;28;20042;-84
2022/03/18 08:00:29;;;;;;;22.30;7.22;;;;;;;;;;4977797;28;20034;-84
2022/03/18 08:02:55;;;;;;;23.13;9.98;;;;;;;;;;5001481;28;20026;-83
2022/03/18 08:05:22;;;;;;;24.25;8.35;;;;;;;;;;5003254;28;20106;-84
2022/03/18 08:07:48;;;;;;;20.85;7.40;;;;;;;;;;4986255;28;20053;-84
2022/03/18 08:10:17;;;;;;;20.33;7.75;;;;;;;;;;5000516;28;20116;-84
2022/03/18 08:12:44;;;;;;;23.33;8.43;;;;;;;;;;4981356;28;20034;-84
2022/03/18 08:15:18;;;;;;;18.85;7.15;;;;;;;;;;4983762;28;20409;-84
2022/03/18 08:17:44;;;;;;;18.92;9.25;;;;;;;;;;4985413;28;20413;-84
2022/03/18 08:20:12;;;;;;;19.38;6.88;;;;;;;;;;5001500;28;20675;-84
2022/03/18 08:22:38;;;;;;;15.10;6.75;;;;;;;;;;4997844;28;20426;-84
2022/03/18 08:25:05;;;;;;;15.20;6.85;;;;;;;;;;4982301;28;20552;-84
2022/03/18 08:27:32;;;;;;;17.83;7.57;;;;;;;;;;4982556;28;20038;-84
2022/03/18 08:29:59;;;;;;;28.23;7.90;;;;;;;;;;4980793;28;20038;-84
2022/03/18 08:32:26;;;;;;;15.90;6.88;;;;;;;;;;4988840;28;20033;-84
2022/03/18 08:34:53;;;;;;;15.23;7.00;;;;;;;;;;4997694;28;20028;-84
2022/03/18 08:37:56;;;;;;;19.27;7.40;;;;;;;;;;4983465;28;20034;-84
2022/03/18 08:40:05;;;;;;;19.88;6.72;;;;;;;;;;4999123;28;20441;-83
2022/03/18 08:42:31;;;;;;;22.38;6.82;;;;;;;;;;5002370;28;20037;-84
2022/03/18 08:44:58;;;;;;;23.27;8.07;;;;;;;;;;4982187;28;20029;-84
2022/03/18 08:47:25;;;;;;;17.08;6.10;;;;;;;;;;4988409;28;20037;-84
2022/03/18 08:49:51;;;;;;;15.52;6.47;;;;;;;;;;4988542;28;20029;-84
2022/03/18 08:52:17;;;;;;;23.77;7.15;;;;;;;;;;5004395;28;20046;-84
2022/03/18 08:54:43;;;;;;;22.67;7.18;;;;;;;;;;4978449;28;20033;-84
2022/03/18 08:57:10;;;;;;;20.20;7.88;;;;;;;;;;4998079;28;20759;-84
2022/03/18 08:59:36;;;;;;;16.27;6.72;;;;;;;;;;5000797;28;20022;-84
2022/03/18 09:02:02;;;;;;;14.65;7.47;;;;;;;;;;4997712;28;20091;-84
2022/03/18 09:04:28;;;;;;;17.70;5.93;;;;;;;;;;4999926;28;20048;-83
2022/03/18 09:06:54;;;;;;;15.27;6.63;;;;;;;;;;4985673;28;20368;-84
2022/03/18 09:09:21;;;;;;;21.63;6.90;;;;;;;;;;5003835;28;20081;-84
2022/03/18 09:11:47;;;;;;;16.98;7.05;;;;;;;;;;4989598;28;20037;-84
2022/03/18 09:14:14;;;;;;;16.27;6.93;;;;;;;;;;5000515;28;20556;-83
2022/03/18 09:16:40;;;;;;;26.50;7.70;;;;;;;;;;4998256;28;20034;-83
2022/03/18 09:19:06;;;;;;;27.38;7.72;;;;;;;;;;4979865;28;20049;-83
2022/03/18 09:21:32;;;;;;;21.48;7.40;;;;;;;;;;4985659;28;20065;-84
2022/03/18 09:23:59;;;;;;;22.73;8.23;;;;;;;;;;4982373;28;20853;-84
2022/03/18 09:26:25;;;;;;;18.88;6.75;;;;;;;;;;4984766;28;20049;-84
2022/03/18 09:28:51;;;;;;;19.13;6.15;;;;;;;;;;5001512;28;20446;-84
2022/03/18 09:31:17;;;;;;;16.83;6.95;;;;;;;;;;4996814;28;20033;-84
2022/03/18 09:33:46;;;;;;;20.17;7.45;;;;;;;;;;4998383;28;20049;-84
2022/03/18 09:36:14;;;;;;;22.67;7.85;;;;;;;;;;4986730;28;20389;-84
2022/03/18 09:38:41;;;;;;;16.90;6.72;;;;;;;;;;4988831;28;20038;-84
2022/03/18 09:41:07;;;;;;;18.27;7.10;;;;;;;;;;4990060;28;20038;-84
2022/03/18 09:43:34;;;;;;;16.60;7.68;;;;;;;;;;4985891;28;20026;-84
2022/03/18 09:46:01;;;;;;;16.52;5.68;;;;;;;;;;5000226;28;20198;-84
2022/03/18 09:48:27;;;;;;;22.77;6.45;;;;;;;;;;4985288;28;20118;-84
2022/03/18 09:50:54;;;;;;;26.23;7.32;;;;;;;;;;5001276;28;20030;-84
2022/03/18 09:53:20;;;;;;;25.45;7.40;;;;;;;;;;5002265;28;20041;-84
2022/03/18 09:55:46;;;;;;;18.05;6.88;;;;;;;;;;4984540;28;20056;-84
2022/03/18 09:58:13;;;;;;;14.40;5.63;;;;;;;;;;4984823;28;20043;-84
2022/03/18 10:00:39;;;;;;;15.20;6.93;;;;;;;;;;5001149;28;20053;-84
2022/03/18 10:03:12;;;;;;;15.45;5.90;;;;;;;;;;4986916;28;20038;-84
2022/03/18 10:05:49;;;;;;;19.15;6.72;;;;;;;;;;4988269;28;20144;-84
2022/03/18 10:08:15;;;;;;;21.80;6.57;;;;;;;;;;4992496;28;20445;-85
2022/03/18 10:10:49;;;;;;;18.58;6.35;;;;;;;;;;4986813;28;20040;-84
2022/03/18 10:13:16;;;;;;;12.27;6.38;;;;;;;;;;4988820;28;20034;-85
2022/03/18 10:15:42;;;;;;;18.77;6.18;;;;;;;;;;4983916;28;20053;-84
2022/03/18 10:18:12;;;;;;;17.50;5.80;;;;;;;;;;4989764;28;20040;-84
2022/03/18 10:20:39;;;;;;;19.00;6.95;;;;;;;;;;4980843;28;21578;-85
2022/03/18 10:23:28;;;;;;;17.58;6.60;;;;;;;;;;4989965;28;20065;-85
2022/03/18 10:25:58;;;;;;;22.67;6.22;;;;;;;;;;4982594;28;20061;-84
2022/03/18 10:28:39;;;;;;;23.02;5.88;;;;;;;;;;4999768;28;20038;-83
2022/03/18 10:31:19;;;;;;;16.17;5.75;;;;;;;;;;4991104;28;20504;-84
2022/03/18 10:37:11;;;;;;;19.35;6.65;;;;;;;;;;5004010;28;20084;-84
2022/03/18 10:39:33;;;;;;;18.38;6.53;;;;;;;;;;4998239;28;20034;-85
2022/03/18 10:42:00;;;;;;;23.33;6.57;;;;;;;;;;4985211;28;20061;-84
2022/03/18 10:44:27;;;;;;;23.27;6.68;;;;;;;;;;4985755;28;20085;-84
2022/03/18 10:47:08;;;;;;;19.83;6.50;;;;;;;;;;4974706;28;20421;-85
2022/03/18 10:49:35;;;;;;;21.75;6.65;;;;;;;;;;4986759;28;20034;-84
2022/03/18 10:52:10;;;;;;;16.50;7.03;;;;;;;;;;4998332;28;20032;-85
2022/03/18 10:54:37;;;;;;;;;;;;;;;;;;4984373;28;20375;-85
2022/03/18 10:57:03;;;;;;;18.05;6.22;;;;;;;;;;4998693;28;20004;-85
2022/03/18 10:59:31;;;;;;;17.73;6.10;;;;;;;;;;4982838;28;20034;-85
2022/03/18 11:01:58;;;;;;;18.65;6.18;;;;;;;;;;4981743;28;20116;-85
2022/03/18 11:04:26;;;;;;;17.23;6.43;;;;;;;;;;4998580;28;20033;-85
2022/03/18 11:12:32;;;;;;;22.35;6.57;;;;;;;;;;4996125;28;20441;-85
2022/03/18 11:14:58;;;;;;;19.33;7.25;;;;;;;;;;4989364;28;20022;-85
2022/03/18 11:17:25;;;;;;;18.88;5.95;;;;;;;;;;4986541;28;20473;-85
2022/03/18 11:19:53;;;;;;;16.80;5.57;;;;;;;;;;4991254;28;20386;-85
2022/03/18 11:22:20;;;;;;;12.02;4.60;;;;;;;;;;5001113;28;20030;-84
2022/03/18 11:24:47;;;;;;;15.90;5.85;;;;;;;;;;4998850;28;20038;-84
2022/03/18 11:27:13;;;;;;;18.48;6.15;;;;;;;;;;5001140;28;20356;-85
2022/03/18 11:29:40;;;;;;;17.42;5.90;;;;;;;;;;5000103;28;20476;-84
2022/03/18 11:32:12;;;;;;;21.42;6.22;;;;;;;;;;5003540;28;20029;-85
2022/03/18 11:34:45;;;;;;;25.05;7.22;;;;;;;;;;4985002;28;20509;-85
2022/03/18 11:37:11;;;;;;;16.55;6.15;;;;;;;;;;4980366;28;20041;-85
2022/03/18 11:39:38;;;;;;;22.15;6.85;;;;;;;;;;5001965;28;20107;-84
2022/03/18 11:42:09;;;;;;;16.30;6.10;;;;;;;;;;5004320;28;20573;-84
2022/03/18 11:44:41;;;;;;;21.52;5.78;;;;;;;;;;5005008;28;20053;-83
2022/03/18 11:47:20;;;;;;;20.75;5.10;;;;;;;;;;4983975;28;20804;-82
2022/03/18 11:49:46;;;;;;;20.25;6.32;;;;;;;;;;4980932;28;20030;-83
2022/03/18 11:52:12;;;;;;;23.92;6.10;;;;;;;;;;4997826;28;20754;-83
2022/03/18 11:54:54;;;;;;;16.95;5.82;;;;;;;;;;4964452;28;20038;-83
2022/03/18 11:57:28;;;;;;;18.80;5.85;;;;;;;;;;4967854;28;20060;-83
2022/03/18 11:59:55;;;;;;;16.55;5.63;;;;;;;;;;4964078;28;20026;-83
2022/03/18 12:02:31;;;;;;;19.38;5.35;;;;;;;;;;4982335;28;20043;-83
2022/03/18 12:04:58;;;;;;;18.75;4.97;;;;;;;;;;4965698;28;20031;-83
2022/03/18 12:07:30;;;;;;;20.27;5.20;;;;;;;;;;4967486;28;20513;-83
2022/03/18 12:10:05;;;;;;;22.65;6.38;;;;;;;;;;4965677;28;20592;-83
2022/03/18 12:12:32;;;;;;;16.67;5.50;;;;;;;;;;4966655;28;20030;-83
2022/03/18 12:14:59;;;;;;;13.63;4.68;;;;;;;;;;4968501;28;20506;-85
2022/03/18 12:17:26;;;;;;;16.75;5.15;;;;;;;;;;4976255;28;20449;-82
2022/03/18 12:19:56;;;;;;;20.08;5.97;;;;;;;;;;4973065;28;20026;-85
2022/03/18 12:22:23;;;;;;;18.25;5.30;;;;;;;;;;4970294;28;20044;-85
2022/03/18 12:24:49;;;;;;;16.60;5.57;;;;;;;;;;4970361;28;20033;-83
2022/03/18 12:27:19;;;;;;;22.27;5.50;;;;;;;;;;4969173;28;20402;-83
2022/03/18 12:29:46;;;;;;;21.85;5.15;;;;;;;;;;4967089;28;20034;-83
2022/03/18 12:32:16;;;;;;;17.77;4.82;;;;;;;;;;4970583;28;20069;-82
2022/03/18 12:34:47;;;;;;;20.33;4.90;;;;;;;;;;4967154;28;20385;-85
2022/03/18 12:37:17;;;;;;;19.50;5.18;;;;;;;;;;4981904;28;20065;-85
2022/03/18 12:39:43;;;;;;;22.65;6.03;;;;;;;;;;4983686;28;20058;-83
2022/03/18 12:42:11;;;;;;;20.52;5.35;;;;;;;;;;4980100;28;20033;-83
2022/03/18 12:44:37;;;;;;;15.88;4.85;;;;;;;;;;4966044;28;20053;-83
2022/03/18 12:47:06;;;;;;;22.98;5.30;;;;;;;;;;4971298;28;20541;-84
2022/03/18 12:49:35;;;;;;;12.88;4.15;;;;;;;;;;4987157;28;20026;-83
2022/03/18 12:52:01;;;;;;;23.42;5.15;;;;;;;;;;4981891;28;20491;-84
2022/03/18 12:54:29;;;;;;;26.45;5.50;;;;;;;;;;4982858;28;20445;-83
2022/03/18 12:56:55;;;;;;;20.92;5.07;;;;;;;;;;4976131;28;20030;-83
2022/03/18 12:59:21;;;;;;;16.88;4.65;;;;;;;;;;4985598;28;20478;-83
2022/03/18 13:01:52;;;;;;;17.25;4.60;;;;;;;;;;4984644;28;20190;-83
2022/03/18 13:04:21;;;;;;;14.65;4.32;;;;;;;;;;4985395;28;20057;-83
2022/03/18 13:06:51;;;;;;;21.55;5.13;;;;;;;;;;4964287;28;20068;-83
2022/03/18 13:09:18;;;;;;;14.23;4.25;;;;;;;;;;4986094;28;20054;-84
2022/03/18 13:11:44;;;;;;;19.02;4.28;;;;;;;;;;4985038;28;20521;-84
2022/03/18 13:14:11;;;;;;;16.75;4.57;;;;;;;;;;4965395;28;20394;-84
2022/03/18 13:16:38;;;;;;;17.73;3.90;;;;;;;;;;4986441;28;20027;-83
2022/03/18 13:19:05;;;;;;;18.42;4.15;;;;;;;;;;4986543;28;20049;-84
2022/03/18 13:21:44;;;;;;;22.20;4.55;;;;;;;;;;4973664;28;20567;-83
2022/03/18 13:24:12;;;;;;;17.58;4.25;;;;;;;;;;4964831;28;20457;-84
2022/03/18 13:26:41;;;;;;;14.50;4.60;;;;;;;;;;4985678;28;20031;-83
2022/03/18 13:29:07;;;;;;;23.73;4.50;;;;;;;;;;4971307;28;20135;-84
2022/03/18 13:34:29;;;;;;;10.23;4.10;;;;;;;;;;4984086;28;20041;-84
2022/03/18 13:37:09;;;;;;;19.70;6.07;;;;;;;;;;4983401;28;20034;-84
2022/03/18 13:39:35;;;;;;;23.15;5.00;;;;;;;;;;4997485;28;20035;-83
2022/03/18 13:42:01;;;;;;;24.65;4.80;;;;;;;;;;4965496;28;20430;-84
2022/03/18 13:44:43;;;;;;;20.20;5.00;;;;;;;;;;4968953;28;20038;-83
2022/03/18 13:47:09;;;;;;;20.63;4.70;;;;;;;;;;4965766;28;20046;-84
2022/03/18 13:49:35;;;;;;;14.63;4.78;;;;;;;;;;4983212;28;20096;-84
2022/03/18 13:52:04;;;;;;;18.13;4.72;;;;;;;;;;4984756;28;20030;-84
2022/03/18 13:54:41;;;;;;;18.48;5.30;;;;;;;;;;4996446;28;20529;-84
2022/03/18 13:57:07;;;;;;;24.88;5.43;;;;;;;;;;4997391;28;20066;-84
2022/03/18 13:59:33;;;;;;;17.90;6.00;;;;;;;;;;4984296;28;20029;-83
2022/03/18 14:02:01;;;;;;;16.30;4.78;;;;;;;;;;4987574;28;20030;-83
2022/03/18 14:04:27;;;;;;;23.38;4.93;;;;;;;;;;5000242;28;20611;-83
2022/03/18 14:06:59;;;;;;;13.57;4.38;;;;;;;;;;5003846;28;20038;-83
2022/03/18 14:09:25;;;;;;;24.17;5.63;;;;;;;;;;4987968;28;20038;-83
2022/03/18 14:12:09;;;;;;;18.55;4.63;;;;;;;;;;4986221;28;20033;-83
2022/03/18 14:14:36;;;;;;;20.92;5.00;;;;;;;;;;4988302;28;20026;-84
2022/03/18 14:17:10;;;;;;;21.80;4.93;;;;;;;;;;4984950;28;20018;-83
2022/03/18 14:19:46;;;;;;;16.90;4.80;;;;;;;;;;4983887;28;20132;-83
2022/03/18 14:22:32;;;;;;;20.17;4.45;;;;;;;;;;4985728;28;20034;-83
2022/03/18 14:24:58;;;;;;;21.02;4.35;;;;;;;;;;4985930;28;20125;-83
2022/03/18 14:27:25;;;;;;;19.98;4.35;;;;;;;;;;4986007;28;20366;-82
2022/03/18 14:29:51;;;;;;;18.23;3.97;;;;;;;;;;5003512;28;20049;-82
2022/03/18 14:32:17;;;;;;;20.67;4.88;;;;;;;;;;5003342;28;20040;-82
2022/03/18 14:34:45;;;;;;;14.55;4.15;;;;;;;;;;4982810;28;20465;-84
2022/03/18 14:37:12;;;;;;;11.23;4.10;;;;;;;;;;4999504;28;20026;-85
2022/03/18 14:39:38;;;;;;;16.85;5.05;;;;;;;;;;4992606;28;20045;-84
2022/03/18 14:42:04;;;;;;;11.05;3.72;;;;;;;;;;4999202;28;20053;-84
2022/03/18 14:44:30;;;;;;;21.73;4.38;;;;;;;;;;4997867;28;20078;-83
2022/03/18 14:46:56;;;;;;;11.25;4.07;;;;;;;;;;4983172;28;21172;-82
2022/03/18 14:49:22;;;;;;;13.75;4.07;;;;;;;;;;4985950;28;20030;-85
2022/03/18 14:51:48;;;;;;;13.05;4.53;;;;;;;;;;4987046;28;20114;-84
2022/03/18 14:54:15;;;;;;;16.90;3.78;;;;;;;;;;4983452;28;20053;-83
2022/03/18 14:56:41;;;;;;;11.52;3.75;;;;;;;;;;4984291;28;20038;-83